Memphis International Airport
KMEM : now visible

Airfield :











YOU CAN JOIN US ON...

 
LOGIN :

Register | Disclaimer

   EN    FR    IT 

 









Legend :    VFR   Marginal VFR   IFR   Intensive IFR   Very Intensive IFR
Visi :
Ceiling :
>= 8 km
>= 3000ft
5 to 8 km
1000 to 3000 ft
1500m to 5 km
500 to 1000 ft
800 to 1500m
200 to 500 ft
< 800m
< 200 ft
Symbols :   Thunderstorms  Fog  Heavy snow  Heavy precipitations  Wind > 20 kt






- Airport Elevation : 341 ft
- IATA code : MEM


KMEM - Memphis International

CURRENT METAR :
  • 101154Z 23009KT 10SM BKN010 OVC110 16/14 A2961 RMK AO2 SLP022 60016 70017 T01610144 10183 20156 55022 $

EXPIRED METARs :
  • 101103Z 21008KT 10SM SCT010 OVC080 16/14 A2959 RMK AO2 T01610144 $
  • 101054Z 19012KT 8SM BKN010 OVC040 16/14 A2959 RMK AO2 RAE03 PRESRR SLP015 P0000 T01610144 $
  • 101037Z 17014G20KT 8SM BKN010 OVC040 16/14 A2957 RMK AO2 RAE03 P0000 T01610144 $
  • 100954Z 15014KT 8SM -RA FEW015 OVC045 17/14 A2954 RMK AO2 PRESFR SLP000 P0011 T01670144 $

TAF KMEM
Valid from the 10 at 12:00 until the 11 at 18:00 UTC


101125Z 1012/1118 20012G20KT P6SM BKN015 OVC040
FM101600 26016G25KT P6SM SCT025 BKN060
FM102100 29014G22KT P6SM SCT100
FM110100 27010KT P6SM FEW250
KZME FIR / North America



MET'MAP, your aeronautical weather chart ! - Copyright ORBIFLY December 2007 - Disclaimer

ORBIFLY MET'MAP TEAM :

Programming & Development : Alexandra Zaïnal
Concept & original design : Baudouin d'Aumeries
Assistance for programming : Marc-Olivier Méhu
Technical & hardware support : Manuel Goepfert

Contact : metmap@orbifly.com




SOURCES & CREDITS :

   NOAA       Earth
Advisory